sensor_id;sensor_type;location;lat;lon;timestamp;P1;durP1;ratioP1;P2;durP2;ratioP2
1693;SDS011;844;47.058;15.472;2023-03-01T00:01:14;18.57;;;14.37;;
1693;SDS011;844;47.058;15.472;2023-03-01T00:03:45;18.53;;;16.40;;
1693;SDS011;844;47.058;15.472;2023-03-01T00:06:18;20.63;;;16.33;;
1693;SDS011;844;47.058;15.472;2023-03-01T00:08:51;20.97;;;16.60;;
1693;SDS011;844;47.058;15.472;2023-03-01T00:14:00;26.77;;;19.10;;
1693;SDS011;844;47.058;15.472;2023-03-01T00:16:33;22.60;;;19.17;;
1693;SDS011;844;47.058;15.472;2023-03-01T00:19:06;22.70;;;17.23;;
1693;SDS011;844;47.058;15.472;2023-03-01T00:21:41;21.40;;;17.03;;
1693;SDS011;844;47.058;15.472;2023-03-01T00:24:11;23.33;;;18.13;;
1693;SDS011;844;47.058;15.472;2023-03-01T00:26:42;19.83;;;16.40;;
1693;SDS011;844;47.058;15.472;2023-03-01T00:29:17;19.50;;;15.80;;
1693;SDS011;844;47.058;15.472;2023-03-01T00:31:47;19.90;;;17.07;;
1693;SDS011;844;47.058;15.472;2023-03-01T00:34:19;20.97;;;16.53;;
1693;SDS011;844;47.058;15.472;2023-03-01T00:36:56;21.43;;;17.53;;
1693;SDS011;844;47.058;15.472;2023-03-01T00:39:33;17.70;;;15.70;;
1693;SDS011;844;47.058;15.472;2023-03-01T00:42:09;21.57;;;17.17;;
1693;SDS011;844;47.058;15.472;2023-03-01T00:44:42;21.90;;;17.30;;
1693;SDS011;844;47.058;15.472;2023-03-01T00:47:13;17.50;;;15.70;;
1693;SDS011;844;47.058;15.472;2023-03-01T00:49:43;18.83;;;15.73;;
1693;SDS011;844;47.058;15.472;2023-03-01T00:52:17;17.87;;;15.83;;
1693;SDS011;844;47.058;15.472;2023-03-01T00:54:47;20.83;;;16.17;;
1693;SDS011;844;47.058;15.472;2023-03-01T00:57:21;22.17;;;16.10;;
1693;SDS011;844;47.058;15.472;2023-03-01T00:59:51;19.53;;;17.00;;
1693;SDS011;844;47.058;15.472;2023-03-01T01:02:23;20.33;;;17.77;;
1693;SDS011;844;47.058;15.472;2023-03-01T01:05:04;26.73;;;17.47;;
1693;SDS011;844;47.058;15.472;2023-03-01T01:07:38;20.33;;;16.63;;
1693;SDS011;844;47.058;15.472;2023-03-01T01:10:15;17.57;;;14.70;;
1693;SDS011;844;47.058;15.472;2023-03-01T01:12:46;22.93;;;17.07;;
1693;SDS011;844;47.058;15.472;2023-03-01T01:15:17;24.20;;;17.93;;
1693;SDS011;844;47.058;15.472;2023-03-01T01:17:48;18.67;;;15.33;;
1693;SDS011;844;47.058;15.472;2023-03-01T01:20:18;17.30;;;15.50;;
1693;SDS011;844;47.058;15.472;2023-03-01T01:22:51;29.00;;;17.80;;
1693;SDS011;844;47.058;15.472;2023-03-01T01:25:22;19.83;;;16.03;;
1693;SDS011;844;47.058;15.472;2023-03-01T01:27:55;20.00;;;16.63;;
1693;SDS011;844;47.058;15.472;2023-03-01T01:30:30;24.83;;;17.70;;
1693;SDS011;844;47.058;15.472;2023-03-01T01:33:02;24.00;;;16.33;;
1693;SDS011;844;47.058;15.472;2023-03-01T01:38:15;22.00;;;18.27;;
1693;SDS011;844;47.058;15.472;2023-03-01T01:40:45;21.93;;;17.50;;
1693;SDS011;844;47.058;15.472;2023-03-01T01:43:19;21.50;;;17.23;;
1693;SDS011;844;47.058;15.472;2023-03-01T01:45:55;24.43;;;18.10;;
1693;SDS011;844;47.058;15.472;2023-03-01T01:48:28;24.30;;;17.67;;
1693;SDS011;844;47.058;15.472;2023-03-01T01:51:13;25.13;;;17.57;;
1693;SDS011;844;47.058;15.472;2023-03-01T01:53:53;22.20;;;16.33;;
1693;SDS011;844;47.058;15.472;2023-03-01T01:56:25;18.73;;;15.57;;
1693;SDS011;844;47.058;15.472;2023-03-01T02:04:06;21.60;;;16.40;;
1693;SDS011;844;47.058;15.472;2023-03-01T02:06:42;22.10;;;15.23;;
1693;SDS011;844;47.058;15.472;2023-03-01T02:09:20;18.07;;;15.70;;
1693;SDS011;844;47.058;15.472;2023-03-01T02:11:52;16.63;;;14.47;;
1693;SDS011;844;47.058;15.472;2023-03-01T02:14:24;16.53;;;14.27;;
1693;SDS011;844;47.058;15.472;2023-03-01T02:16:54;22.00;;;16.70;;
1693;SDS011;844;47.058;15.472;2023-03-01T02:19:30;16.97;;;15.17;;
1693;SDS011;844;47.058;15.472;2023-03-01T02:22:12;18.07;;;14.33;;
1693;SDS011;844;47.058;15.472;2023-03-01T02:24:52;15.23;;;13.63;;
1693;SDS011;844;47.058;15.472;2023-03-01T02:27:33;17.53;;;14.17;;
1693;SDS011;844;47.058;15.472;2023-03-01T02:30:10;18.70;;;15.60;;
1693;SDS011;844;47.058;15.472;2023-03-01T02:32:41;18.73;;;14.00;;
1693;SDS011;844;47.058;15.472;2023-03-01T02:35:10;17.50;;;14.50;;
1693;SDS011;844;47.058;15.472;2023-03-01T02:37:43;19.23;;;14.90;;
1693;SDS011;844;47.058;15.472;2023-03-01T02:40:17;19.63;;;15.80;;
1693;SDS011;844;47.058;15.472;2023-03-01T02:42:50;18.83;;;15.80;;
1693;SDS011;844;47.058;15.472;2023-03-01T02:45:25;18.60;;;16.37;;
1693;SDS011;844;47.058;15.472;2023-03-01T02:47:57;17.57;;;14.17;;
1693;SDS011;844;47.058;15.472;2023-03-01T02:50:36;20.53;;;16.47;;
1693;SDS011;844;47.058;15.472;2023-03-01T02:53:16;21.03;;;16.53;;
1693;SDS011;844;47.058;15.472;2023-03-01T02:55:52;17.30;;;14.60;;
1693;SDS011;844;47.058;15.472;2023-03-01T02:58:25;19.93;;;15.77;;
1693;SDS011;844;47.058;15.472;2023-03-01T03:00:58;16.93;;;13.20;;
1693;SDS011;844;47.058;15.472;2023-03-01T03:03:28;18.33;;;13.97;;
1693;SDS011;844;47.058;15.472;2023-03-01T03:08:49;17.57;;;13.50;;
1693;SDS011;844;47.058;15.472;2023-03-01T03:11:20;19.33;;;14.70;;
1693;SDS011;844;47.058;15.472;2023-03-01T03:13:51;16.43;;;14.40;;
1693;SDS011;844;47.058;15.472;2023-03-01T03:16:26;17.00;;;14.73;;
1693;SDS011;844;47.058;15.472;2023-03-01T03:18:57;17.67;;;13.40;;
1693;SDS011;844;47.058;15.472;2023-03-01T03:21:38;15.93;;;13.20;;
1693;SDS011;844;47.058;15.472;2023-03-01T03:24:10;18.77;;;14.67;;
1693;SDS011;844;47.058;15.472;2023-03-01T03:26:41;19.63;;;14.33;;
1693;SDS011;844;47.058;15.472;2023-03-01T03:29:12;16.27;;;14.20;;
1693;SDS011;844;47.058;15.472;2023-03-01T03:31:44;17.63;;;12.87;;
1693;SDS011;844;47.058;15.472;2023-03-01T03:34:14;19.43;;;16.70;;
1693;SDS011;844;47.058;15.472;2023-03-01T03:36:46;17.00;;;13.63;;
1693;SDS011;844;47.058;15.472;2023-03-01T03:39:16;14.70;;;13.20;;
1693;SDS011;844;47.058;15.472;2023-03-01T03:41:49;15.57;;;13.50;;
1693;SDS011;844;47.058;15.472;2023-03-01T03:44:20;19.90;;;14.60;;
1693;SDS011;844;47.058;15.472;2023-03-01T03:46:53;17.50;;;14.80;;
1693;SDS011;844;47.058;15.472;2023-03-01T03:49:24;14.40;;;12.57;;
1693;SDS011;844;47.058;15.472;2023-03-01T03:51:55;14.57;;;12.43;;
1693;SDS011;844;47.058;15.472;2023-03-01T03:54:25;17.37;;;13.90;;
1693;SDS011;844;47.058;15.472;2023-03-01T03:56:57;16.30;;;13.63;;
1693;SDS011;844;47.058;15.472;2023-03-01T03:59:29;17.63;;;13.57;;
1693;SDS011;844;47.058;15.472;2023-03-01T04:02:01;16.67;;;14.87;;
1693;SDS011;844;47.058;15.472;2023-03-01T04:04:31;14.40;;;12.47;;
1693;SDS011;844;47.058;15.472;2023-03-01T04:07:01;14.73;;;13.27;;
1693;SDS011;844;47.058;15.472;2023-03-01T04:09:31;15.73;;;13.17;;
1693;SDS011;844;47.058;15.472;2023-03-01T04:12:01;17.80;;;15.10;;
1693;SDS011;844;47.058;15.472;2023-03-01T04:14:31;18.80;;;14.40;;
1693;SDS011;844;47.058;15.472;2023-03-01T04:17:03;20.13;;;13.83;;
1693;SDS011;844;47.058;15.472;2023-03-01T04:19:33;14.23;;;12.83;;
1693;SDS011;844;47.058;15.472;2023-03-01T04:22:03;16.87;;;13.40;;
1693;SDS011;844;47.058;15.472;2023-03-01T04:24:36;13.43;;;11.57;;
1693;SDS011;844;47.058;15.472;2023-03-01T04:27:08;15.63;;;12.47;;
1693;SDS011;844;47.058;15.472;2023-03-01T04:29:38;19.10;;;14.60;;
1693;SDS011;844;47.058;15.472;2023-03-01T04:32:09;17.60;;;13.50;;
1693;SDS011;844;47.058;15.472;2023-03-01T04:34:44;17.93;;;12.97;;
1693;SDS011;844;47.058;15.472;2023-03-01T04:37:14;13.10;;;11.70;;
1693;SDS011;844;47.058;15.472;2023-03-01T04:39:49;16.80;;;13.30;;
1693;SDS011;844;47.058;15.472;2023-03-01T04:42:19;18.33;;;13.27;;
1693;SDS011;844;47.058;15.472;2023-03-01T04:44:49;15.93;;;12.90;;
1693;SDS011;844;47.058;15.472;2023-03-01T04:47:22;18.70;;;13.60;;
1693;SDS011;844;47.058;15.472;2023-03-01T04:49:52;15.63;;;12.70;;
1693;SDS011;844;47.058;15.472;2023-03-01T04:52:22;19.00;;;13.87;;
1693;SDS011;844;47.058;15.472;2023-03-01T04:54:53;14.10;;;12.60;;
1693;SDS011;844;47.058;15.472;2023-03-01T04:57:23;15.60;;;12.53;;
1693;SDS011;844;47.058;15.472;2023-03-01T04:59:53;20.90;;;13.43;;
1693;SDS011;844;47.058;15.472;2023-03-01T05:02:28;13.90;;;12.00;;
1693;SDS011;844;47.058;15.472;2023-03-01T05:04:59;17.70;;;12.00;;
1693;SDS011;844;47.058;15.472;2023-03-01T05:07:29;16.17;;;14.17;;
1693;SDS011;844;47.058;15.472;2023-03-01T05:10:00;16.90;;;14.27;;
1693;SDS011;844;47.058;15.472;2023-03-01T05:12:30;16.23;;;13.60;;
1693;SDS011;844;47.058;15.472;2023-03-01T05:15:01;16.93;;;14.00;;
1693;SDS011;844;47.058;15.472;2023-03-01T05:17:35;15.30;;;12.20;;
1693;SDS011;844;47.058;15.472;2023-03-01T05:20:06;16.23;;;14.13;;
1693;SDS011;844;47.058;15.472;2023-03-01T05:22:39;16.93;;;13.07;;
1693;SDS011;844;47.058;15.472;2023-03-01T05:25:10;15.97;;;13.10;;
1693;SDS011;844;47.058;15.472;2023-03-01T05:27:42;17.50;;;13.97;;
1693;SDS011;844;47.058;15.472;2023-03-01T05:30:15;13.90;;;12.00;;
1693;SDS011;844;47.058;15.472;2023-03-01T05:32:49;15.27;;;12.47;;
1693;SDS011;844;47.058;15.472;2023-03-01T05:35:25;21.23;;;15.73;;
1693;SDS011;844;47.058;15.472;2023-03-01T05:37:56;17.00;;;13.30;;
1693;SDS011;844;47.058;15.472;2023-03-01T05:40:26;19.00;;;14.00;;
1693;SDS011;844;47.058;15.472;2023-03-01T05:42:57;15.40;;;12.17;;
1693;SDS011;844;47.058;15.472;2023-03-01T05:45:27;15.83;;;12.83;;
1693;SDS011;844;47.058;15.472;2023-03-01T05:48:02;17.00;;;14.00;;
1693;SDS011;844;47.058;15.472;2023-03-01T05:50:35;16.63;;;12.93;;
1693;SDS011;844;47.058;15.472;2023-03-01T05:53:07;15.37;;;12.77;;
1693;SDS011;844;47.058;15.472;2023-03-01T05:55:39;16.90;;;12.53;;
1693;SDS011;844;47.058;15.472;2023-03-01T05:58:13;17.33;;;13.10;;
1693;SDS011;844;47.058;15.472;2023-03-01T06:00:47;17.13;;;13.07;;
1693;SDS011;844;47.058;15.472;2023-03-01T06:03:23;19.00;;;14.60;;
1693;SDS011;844;47.058;15.472;2023-03-01T06:05:55;16.17;;;13.83;;
1693;SDS011;844;47.058;15.472;2023-03-01T06:08:27;17.00;;;13.10;;
1693;SDS011;844;47.058;15.472;2023-03-01T06:10:58;15.03;;;13.17;;
1693;SDS011;844;47.058;15.472;2023-03-01T06:13:29;17.90;;;13.73;;
1693;SDS011;844;47.058;15.472;2023-03-01T06:16:00;21.57;;;15.73;;
1693;SDS011;844;47.058;15.472;2023-03-01T06:18:35;16.37;;;13.63;;
1693;SDS011;844;47.058;15.472;2023-03-01T06:21:06;13.50;;;12.10;;
1693;SDS011;844;47.058;15.472;2023-03-01T06:23:40;18.73;;;15.03;;
1693;SDS011;844;47.058;15.472;2023-03-01T06:26:11;21.30;;;14.67;;
1693;SDS011;844;47.058;15.472;2023-03-01T06:28:42;19.03;;;13.53;;
1693;SDS011;844;47.058;15.472;2023-03-01T06:31:13;18.27;;;15.80;;
1693;SDS011;844;47.058;15.472;2023-03-01T06:33:46;20.57;;;15.80;;
1693;SDS011;844;47.058;15.472;2023-03-01T06:36:17;20.17;;;15.20;;
1693;SDS011;844;47.058;15.472;2023-03-01T06:38:56;19.90;;;16.20;;
1693;SDS011;844;47.058;15.472;2023-03-01T06:41:29;23.33;;;14.97;;
1693;SDS011;844;47.058;15.472;2023-03-01T06:44:00;19.03;;;14.63;;
1693;SDS011;844;47.058;15.472;2023-03-01T06:46:32;18.40;;;16.33;;
1693;SDS011;844;47.058;15.472;2023-03-01T06:49:06;19.63;;;16.73;;
1693;SDS011;844;47.058;15.472;2023-03-01T06:51:41;19.47;;;16.10;;
1693;SDS011;844;47.058;15.472;2023-03-01T06:54:18;20.20;;;17.03;;
1693;SDS011;844;47.058;15.472;2023-03-01T06:56:52;17.33;;;15.60;;
1693;SDS011;844;47.058;15.472;2023-03-01T06:59:22;23.10;;;17.00;;
1693;SDS011;844;47.058;15.472;2023-03-01T07:01:53;22.83;;;16.17;;
1693;SDS011;844;47.058;15.472;2023-03-01T07:04:26;19.77;;;17.47;;
1693;SDS011;844;47.058;15.472;2023-03-01T07:06:57;16.73;;;14.97;;
1693;SDS011;844;47.058;15.472;2023-03-01T07:09:28;22.70;;;14.97;;
1693;SDS011;844;47.058;15.472;2023-03-01T07:12:00;22.50;;;18.33;;
1693;SDS011;844;47.058;15.472;2023-03-01T07:14:32;18.50;;;15.10;;
1693;SDS011;844;47.058;15.472;2023-03-01T07:17:02;19.63;;;15.83;;
1693;SDS011;844;47.058;15.472;2023-03-01T07:19:34;21.20;;;15.33;;
1693;SDS011;844;47.058;15.472;2023-03-01T07:22:05;22.53;;;16.60;;
1693;SDS011;844;47.058;15.472;2023-03-01T07:24:36;19.13;;;14.97;;
1693;SDS011;844;47.058;15.472;2023-03-01T07:27:06;16.70;;;12.90;;
1693;SDS011;844;47.058;15.472;2023-03-01T07:29:37;17.97;;;13.43;;
1693;SDS011;844;47.058;15.472;2023-03-01T07:32:07;16.03;;;14.23;;
1693;SDS011;844;47.058;15.472;2023-03-01T07:34:39;16.00;;;13.87;;
1693;SDS011;844;47.058;15.472;2023-03-01T07:37:09;16.03;;;14.33;;
1693;SDS011;844;47.058;15.472;2023-03-01T07:39:39;15.67;;;13.63;;
1693;SDS011;844;47.058;15.472;2023-03-01T07:42:12;17.73;;;13.10;;
1693;SDS011;844;47.058;15.472;2023-03-01T07:44:43;17.60;;;13.60;;
1693;SDS011;844;47.058;15.472;2023-03-01T07:47:15;17.17;;;13.40;;
1693;SDS011;844;47.058;15.472;2023-03-01T07:49:47;15.80;;;13.17;;
1693;SDS011;844;47.058;15.472;2023-03-01T07:52:18;13.97;;;12.27;;
1693;SDS011;844;47.058;15.472;2023-03-01T07:54:49;19.00;;;16.60;;
1693;SDS011;844;47.058;15.472;2023-03-01T07:57:19;15.67;;;14.03;;
1693;SDS011;844;47.058;15.472;2023-03-01T07:59:49;17.07;;;14.27;;
1693;SDS011;844;47.058;15.472;2023-03-01T08:02:19;17.97;;;15.43;;
1693;SDS011;844;47.058;15.472;2023-03-01T08:04:51;17.23;;;14.13;;
1693;SDS011;844;47.058;15.472;2023-03-01T08:07:21;17.43;;;14.90;;
1693;SDS011;844;47.058;15.472;2023-03-01T08:09:51;18.20;;;13.73;;
1693;SDS011;844;47.058;15.472;2023-03-01T08:12:21;15.40;;;13.77;;
1693;SDS011;844;47.058;15.472;2023-03-01T08:14:52;17.30;;;13.50;;
1693;SDS011;844;47.058;15.472;2023-03-01T08:17:21;18.87;;;14.30;;
1693;SDS011;844;47.058;15.472;2023-03-01T08:19:53;14.70;;;12.73;;
1693;SDS011;844;47.058;15.472;2023-03-01T08:22:23;17.27;;;14.30;;
1693;SDS011;844;47.058;15.472;2023-03-01T08:24:53;17.70;;;14.57;;
1693;SDS011;844;47.058;15.472;2023-03-01T08:27:24;15.40;;;13.90;;
1693;SDS011;844;47.058;15.472;2023-03-01T08:29:55;17.27;;;15.47;;
1693;SDS011;844;47.058;15.472;2023-03-01T08:32:25;16.23;;;13.97;;
1693;SDS011;844;47.058;15.472;2023-03-01T08:34:57;17.70;;;15.03;;
1693;SDS011;844;47.058;15.472;2023-03-01T08:37:27;20.03;;;14.37;;
1693;SDS011;844;47.058;15.472;2023-03-01T08:40:00;16.47;;;14.73;;
1693;SDS011;844;47.058;15.472;2023-03-01T08:42:37;18.10;;;13.70;;
1693;SDS011;844;47.058;15.472;2023-03-01T08:45:08;17.63;;;14.40;;
1693;SDS011;844;47.058;15.472;2023-03-01T08:47:40;17.30;;;13.30;;
1693;SDS011;844;47.058;15.472;2023-03-01T08:50:12;20.63;;;14.50;;
1693;SDS011;844;47.058;15.472;2023-03-01T08:52:42;17.37;;;14.10;;
1693;SDS011;844;47.058;15.472;2023-03-01T08:55:12;15.40;;;13.03;;
1693;SDS011;844;47.058;15.472;2023-03-01T08:57:44;19.47;;;14.77;;
1693;SDS011;844;47.058;15.472;2023-03-01T09:00:15;22.40;;;15.67;;
1693;SDS011;844;47.058;15.472;2023-03-01T09:02:45;17.03;;;14.00;;
1693;SDS011;844;47.058;15.472;2023-03-01T09:05:17;18.30;;;15.00;;
1693;SDS011;844;47.058;15.472;2023-03-01T09:07:48;16.53;;;14.57;;
1693;SDS011;844;47.058;15.472;2023-03-01T09:10:18;18.53;;;14.40;;
1693;SDS011;844;47.058;15.472;2023-03-01T09:12:48;17.67;;;15.13;;
1693;SDS011;844;47.058;15.472;2023-03-01T09:15:19;15.80;;;14.10;;
1693;SDS011;844;47.058;15.472;2023-03-01T09:17:50;16.80;;;14.10;;
1693;SDS011;844;47.058;15.472;2023-03-01T09:20:22;19.50;;;15.43;;
1693;SDS011;844;47.058;15.472;2023-03-01T09:22:52;17.47;;;15.63;;
1693;SDS011;844;47.058;15.472;2023-03-01T09:25:22;17.97;;;15.30;;
1693;SDS011;844;47.058;15.472;2023-03-01T09:27:53;19.83;;;15.40;;
1693;SDS011;844;47.058;15.472;2023-03-01T09:30:23;19.07;;;15.80;;
1693;SDS011;844;47.058;15.472;2023-03-01T09:32:53;23.47;;;17.10;;
1693;SDS011;844;47.058;15.472;2023-03-01T09:35:26;19.20;;;15.87;;
1693;SDS011;844;47.058;15.472;2023-03-01T09:37:57;27.77;;;15.23;;
1693;SDS011;844;47.058;15.472;2023-03-01T09:40:28;22.70;;;17.87;;
1693;SDS011;844;47.058;15.472;2023-03-01T09:42:59;26.30;;;17.30;;
1693;SDS011;844;47.058;15.472;2023-03-01T09:45:33;18.23;;;16.27;;
1693;SDS011;844;47.058;15.472;2023-03-01T09:48:04;22.37;;;17.43;;
1693;SDS011;844;47.058;15.472;2023-03-01T09:50:40;22.00;;;17.87;;
1693;SDS011;844;47.058;15.472;2023-03-01T09:53:13;21.83;;;16.67;;
1693;SDS011;844;47.058;15.472;2023-03-01T09:55:46;23.07;;;17.30;;
1693;SDS011;844;47.058;15.472;2023-03-01T09:58:35;20.43;;;17.07;;
1693;SDS011;844;47.058;15.472;2023-03-01T10:01:25;25.90;;;17.60;;
1693;SDS011;844;47.058;15.472;2023-03-01T10:04:06;19.27;;;16.80;;
1693;SDS011;844;47.058;15.472;2023-03-01T10:06:46;21.37;;;15.97;;
1693;SDS011;844;47.058;15.472;2023-03-01T10:09:19;21.20;;;17.10;;
1693;SDS011;844;47.058;15.472;2023-03-01T10:11:51;22.67;;;16.83;;
1693;SDS011;844;47.058;15.472;2023-03-01T10:14:27;21.93;;;19.10;;
1693;SDS011;844;47.058;15.472;2023-03-01T10:17:03;25.47;;;19.30;;
1693;SDS011;844;47.058;15.472;2023-03-01T10:19:36;21.73;;;17.67;;
1693;SDS011;844;47.058;15.472;2023-03-01T10:22:13;21.63;;;18.37;;
1693;SDS011;844;47.058;15.472;2023-03-01T10:24:45;21.70;;;16.60;;
1693;SDS011;844;47.058;15.472;2023-03-01T10:27:17;20.67;;;17.80;;
1693;SDS011;844;47.058;15.472;2023-03-01T10:29:51;20.50;;;17.73;;
1693;SDS011;844;47.058;15.472;2023-03-01T10:32:29;21.37;;;18.40;;
1693;SDS011;844;47.058;15.472;2023-03-01T10:34:59;20.03;;;17.53;;
1693;SDS011;844;47.058;15.472;2023-03-01T10:37:32;27.03;;;20.20;;
1693;SDS011;844;47.058;15.472;2023-03-01T10:40:03;24.27;;;18.07;;
1693;SDS011;844;47.058;15.472;2023-03-01T10:42:38;27.90;;;17.70;;
1693;SDS011;844;47.058;15.472;2023-03-01T10:45:16;22.43;;;18.10;;
1693;SDS011;844;47.058;15.472;2023-03-01T10:50:45;21.53;;;17.97;;
1693;SDS011;844;47.058;15.472;2023-03-01T10:53:32;22.63;;;16.57;;
1693;SDS011;844;47.058;15.472;2023-03-01T10:56:04;19.63;;;17.57;;
1693;SDS011;844;47.058;15.472;2023-03-01T10:58:36;22.70;;;17.67;;
1693;SDS011;844;47.058;15.472;2023-03-01T11:04:09;24.10;;;18.13;;
1693;SDS011;844;47.058;15.472;2023-03-01T11:06:42;19.87;;;16.13;;
1693;SDS011;844;47.058;15.472;2023-03-01T11:09:15;23.27;;;18.23;;
1693;SDS011;844;47.058;15.472;2023-03-01T11:11:50;21.37;;;18.57;;
1693;SDS011;844;47.058;15.472;2023-03-01T11:14:22;23.43;;;17.43;;
1693;SDS011;844;47.058;15.472;2023-03-01T11:16:58;22.77;;;18.27;;
1693;SDS011;844;47.058;15.472;2023-03-01T11:19:30;28.07;;;20.40;;
1693;SDS011;844;47.058;15.472;2023-03-01T11:22:02;23.07;;;18.70;;
1693;SDS011;844;47.058;15.472;2023-03-01T11:24:39;26.20;;;20.33;;
1693;SDS011;844;47.058;15.472;2023-03-01T11:27:18;22.50;;;19.10;;
1693;SDS011;844;47.058;15.472;2023-03-01T11:29:52;27.20;;;18.87;;
1693;SDS011;844;47.058;15.472;2023-03-01T11:32:24;25.13;;;17.70;;
1693;SDS011;844;47.058;15.472;2023-03-01T11:34:57;24.33;;;18.97;;
1693;SDS011;844;47.058;15.472;2023-03-01T11:37:33;26.43;;;18.13;;
1693;SDS011;844;47.058;15.472;2023-03-01T11:40:15;24.33;;;18.73;;
1693;SDS011;844;47.058;15.472;2023-03-01T11:42:48;23.90;;;18.23;;
1693;SDS011;844;47.058;15.472;2023-03-01T11:45:26;23.10;;;19.07;;
1693;SDS011;844;47.058;15.472;2023-03-01T11:48:02;24.10;;;17.60;;
1693;SDS011;844;47.058;15.472;2023-03-01T11:50:41;22.03;;;17.10;;
1693;SDS011;844;47.058;15.472;2023-03-01T11:53:25;22.07;;;17.63;;
1693;SDS011;844;47.058;15.472;2023-03-01T11:56:08;23.37;;;17.87;;
1693;SDS011;844;47.058;15.472;2023-03-01T11:58:47;18.80;;;16.20;;
1693;SDS011;844;47.058;15.472;2023-03-01T12:01:37;19.93;;;16.37;;
1693;SDS011;844;47.058;15.472;2023-03-01T12:04:26;22.10;;;17.47;;
1693;SDS011;844;47.058;15.472;2023-03-01T12:07:20;24.33;;;18.40;;
1693;SDS011;844;47.058;15.472;2023-03-01T12:09:59;22.30;;;17.40;;
1693;SDS011;844;47.058;15.472;2023-03-01T12:12:48;21.57;;;16.53;;
1693;SDS011;844;47.058;15.472;2023-03-01T12:18:35;23.27;;;18.70;;
1693;SDS011;844;47.058;15.472;2023-03-01T12:21:42;21.80;;;16.70;;
1693;SDS011;844;47.058;15.472;2023-03-01T12:24:32;25.00;;;18.70;;
1693;SDS011;844;47.058;15.472;2023-03-01T12:27:22;17.00;;;15.30;;
1693;SDS011;844;47.058;15.472;2023-03-01T12:30:19;20.43;;;17.07;;
1693;SDS011;844;47.058;15.472;2023-03-01T12:33:02;22.30;;;16.70;;
1693;SDS011;844;47.058;15.472;2023-03-01T12:35:49;19.60;;;16.43;;
1693;SDS011;844;47.058;15.472;2023-03-01T12:38:49;22.90;;;17.97;;
1693;SDS011;844;47.058;15.472;2023-03-01T12:41:44;21.33;;;17.30;;
1693;SDS011;844;47.058;15.472;2023-03-01T12:44:37;24.57;;;19.10;;
1693;SDS011;844;47.058;15.472;2023-03-01T12:47:17;24.23;;;19.20;;
1693;SDS011;844;47.058;15.472;2023-03-01T12:49:52;23.80;;;17.50;;
1693;SDS011;844;47.058;15.472;2023-03-01T12:52:27;22.00;;;18.23;;
1693;SDS011;844;47.058;15.472;2023-03-01T12:55:06;21.30;;;18.37;;
1693;SDS011;844;47.058;15.472;2023-03-01T12:57:46;25.77;;;17.50;;
1693;SDS011;844;47.058;15.472;2023-03-01T13:00:24;24.83;;;17.53;;
1693;SDS011;844;47.058;15.472;2023-03-01T13:03:03;27.87;;;19.00;;
1693;SDS011;844;47.058;15.472;2023-03-01T13:05:39;21.80;;;17.60;;
1693;SDS011;844;47.058;15.472;2023-03-01T13:08:15;26.17;;;17.80;;
1693;SDS011;844;47.058;15.472;2023-03-01T13:10:51;20.03;;;16.87;;
1693;SDS011;844;47.058;15.472;2023-03-01T13:13:26;19.93;;;16.60;;
1693;SDS011;844;47.058;15.472;2023-03-01T13:15:57;20.10;;;16.03;;
1693;SDS011;844;47.058;15.472;2023-03-01T13:19:07;21.70;;;16.40;;
1693;SDS011;844;47.058;15.472;2023-03-01T13:21:39;19.60;;;15.73;;
1693;SDS011;844;47.058;15.472;2023-03-01T13:24:24;22.60;;;15.13;;
1693;SDS011;844;47.058;15.472;2023-03-01T13:29:59;18.87;;;15.53;;
1693;SDS011;844;47.058;15.472;2023-03-01T13:32:33;21.60;;;15.33;;
1693;SDS011;844;47.058;15.472;2023-03-01T13:38:39;22.87;;;16.50;;
1693;SDS011;844;47.058;15.472;2023-03-01T13:41:16;19.40;;;16.23;;
1693;SDS011;844;47.058;15.472;2023-03-01T13:44:15;19.03;;;14.47;;
1693;SDS011;844;47.058;15.472;2023-03-01T13:46:55;18.57;;;15.73;;
1693;SDS011;844;47.058;15.472;2023-03-01T13:49:28;19.53;;;15.53;;
1693;SDS011;844;47.058;15.472;2023-03-01T13:55:14;17.90;;;14.73;;
1693;SDS011;844;47.058;15.472;2023-03-01T13:57:49;20.77;;;14.17;;
1693;SDS011;844;47.058;15.472;2023-03-01T14:00:30;18.17;;;15.67;;
1693;SDS011;844;47.058;15.472;2023-03-01T14:03:03;16.57;;;14.80;;
1693;SDS011;844;47.058;15.472;2023-03-01T14:05:38;16.40;;;14.20;;
1693;SDS011;844;47.058;15.472;2023-03-01T14:08:20;16.07;;;13.23;;
1693;SDS011;844;47.058;15.472;2023-03-01T14:11:10;19.30;;;14.33;;
1693;SDS011;844;47.058;15.472;2023-03-01T14:14:12;22.17;;;13.43;;
1693;SDS011;844;47.058;15.472;2023-03-01T14:17:06;17.83;;;15.13;;
1693;SDS011;844;47.058;15.472;2023-03-01T14:19:45;17.53;;;13.60;;
1693;SDS011;844;47.058;15.472;2023-03-01T14:22:18;17.27;;;14.40;;
1693;SDS011;844;47.058;15.472;2023-03-01T14:24:50;18.43;;;13.70;;
1693;SDS011;844;47.058;15.472;2023-03-01T14:27:25;17.10;;;13.50;;
1693;SDS011;844;47.058;15.472;2023-03-01T14:29:58;14.33;;;12.80;;
1693;SDS011;844;47.058;15.472;2023-03-01T14:32:31;17.13;;;13.60;;
1693;SDS011;844;47.058;15.472;2023-03-01T14:35:02;16.20;;;12.80;;
1693;SDS011;844;47.058;15.472;2023-03-01T14:37:48;16.53;;;14.23;;
1693;SDS011;844;47.058;15.472;2023-03-01T14:40:21;17.13;;;14.03;;
1693;SDS011;844;47.058;15.472;2023-03-01T14:42:56;15.33;;;13.73;;
1693;SDS011;844;47.058;15.472;2023-03-01T14:45:29;16.30;;;13.20;;
1693;SDS011;844;47.058;15.472;2023-03-01T14:48:02;15.83;;;12.43;;
1693;SDS011;844;47.058;15.472;2023-03-01T14:50:34;17.50;;;13.40;;
1693;SDS011;844;47.058;15.472;2023-03-01T14:53:14;15.93;;;12.37;;
1693;SDS011;844;47.058;15.472;2023-03-01T14:55:47;17.10;;;11.83;;
1693;SDS011;844;47.058;15.472;2023-03-01T14:58:20;15.23;;;12.13;;
1693;SDS011;844;47.058;15.472;2023-03-01T15:00:53;12.67;;;10.97;;
1693;SDS011;844;47.058;15.472;2023-03-01T15:03:30;14.40;;;12.90;;
1693;SDS011;844;47.058;15.472;2023-03-01T15:06:03;15.43;;;11.83;;
1693;SDS011;844;47.058;15.472;2023-03-01T15:08:35;17.60;;;14.30;;
1693;SDS011;844;47.058;15.472;2023-03-01T15:11:16;13.50;;;11.80;;
1693;SDS011;844;47.058;15.472;2023-03-01T15:13:50;13.87;;;11.33;;
1693;SDS011;844;47.058;15.472;2023-03-01T15:16:22;16.70;;;11.73;;
1693;SDS011;844;47.058;15.472;2023-03-01T15:18:57;15.50;;;11.97;;
1693;SDS011;844;47.058;15.472;2023-03-01T15:21:30;17.83;;;13.90;;
1693;SDS011;844;47.058;15.472;2023-03-01T15:24:02;19.80;;;15.20;;
1693;SDS011;844;47.058;15.472;2023-03-01T15:26:50;14.83;;;11.93;;
1693;SDS011;844;47.058;15.472;2023-03-01T15:29:25;15.60;;;13.40;;
1693;SDS011;844;47.058;15.472;2023-03-01T15:31:57;17.93;;;12.97;;
1693;SDS011;844;47.058;15.472;2023-03-01T15:34:33;14.87;;;12.57;;
1693;SDS011;844;47.058;15.472;2023-03-01T15:37:04;19.27;;;14.13;;
1693;SDS011;844;47.058;15.472;2023-03-01T15:39:47;16.87;;;14.50;;
1693;SDS011;844;47.058;15.472;2023-03-01T15:42:36;18.90;;;15.27;;
1693;SDS011;844;47.058;15.472;2023-03-01T15:45:08;24.03;;;14.53;;
1693;SDS011;844;47.058;15.472;2023-03-01T15:47:40;17.93;;;14.20;;
1693;SDS011;844;47.058;15.472;2023-03-01T15:50:16;19.00;;;14.60;;
1693;SDS011;844;47.058;15.472;2023-03-01T15:52:49;17.20;;;15.40;;
1693;SDS011;844;47.058;15.472;2023-03-01T15:55:20;17.43;;;14.70;;
1693;SDS011;844;47.058;15.472;2023-03-01T15:57:57;16.30;;;13.43;;
1693;SDS011;844;47.058;15.472;2023-03-01T16:00:29;18.97;;;15.37;;
1693;SDS011;844;47.058;15.472;2023-03-01T16:03:00;16.87;;;15.07;;